Aviation Digital Data Service (ADDS)

Output produced by METARs form (2052 UTC 17 November 2019)
found at http://www.aviationweather.gov/metar/data/
 
METAR text: YPPH 172030Z 19003KT CAVOK 16/15 Q1015 NOSIG
Conditions at: YPPH (PERTH INTL/BELMO, AU) observed 2030 UTC 17 November 2019
Temperature: 16.0°C (61°F)
Dewpoint: 15.0°C (59°F) [RH = 94%]
Pressure (altimeter): 29.97 inches Hg (1015.0 mb)
Winds: from the S (190 degrees) at 3 MPH (3 knots; 1.5 m/s)
Visibility: 6 or more miles (10+ km)
Ceiling: ceiling and visibility are OK
Clouds: unknown
Weather: no significant weather observed at this time

METAR text: YPPH 172000Z 20006KT 9000 NSC 16/15 Q1016 FM2030 15008KT CAVOK
Conditions at: YPPH (PERTH INTL/BELMO, AU) observed 2000 UTC 17 November 2019
Temperature: 16.0°C (61°F)
Dewpoint: 15.0°C (59°F) [RH = 94%]
Pressure (altimeter): 30.00 inches Hg (1016.0 mb)
Winds: from the SSW (200 degrees) at 7 MPH (6 knots; 3.1 m/s)
Visibility: 6 miles ( 9 km)
Ceiling: at least 12,000 feet AGL
Clouds: sky clear below 12,000 feet AGL
Weather: no significant weather observed at this time

METAR text: YPPH 171930Z 19007KT 9000 NSC 17/15 Q1016 FM2030 15008KT CAVOK
Conditions at: YPPH (PERTH INTL/BELMO, AU) observed 1930 UTC 17 November 2019
Temperature: 17.0°C (63°F)
Dewpoint: 15.0°C (59°F) [RH = 88%]
Pressure (altimeter): 30.00 inches Hg (1016.0 mb)
Winds: from the S (190 degrees) at 8 MPH (7 knots; 3.6 m/s)
Visibility: 6 miles ( 9 km)
Ceiling: at least 12,000 feet AGL
Clouds: sky clear below 12,000 feet AGL
Weather: no significant weather observed at this time

METAR text: YPPH 171900Z 21007KT CAVOK 18/17 Q1015 FM2030 15008KT CAVOK
Conditions at: YPPH (PERTH INTL/BELMO, AU) observed 1900 UTC 17 November 2019
Temperature: 18.0°C (64°F)
Dewpoint: 17.0°C (63°F) [RH = 94%]
Pressure (altimeter): 29.97 inches Hg (1015.0 mb)
Winds: from the SSW (210 degrees) at 8 MPH (7 knots; 3.6 m/s)
Visibility: 6 or more miles (10+ km)
Ceiling: ceiling and visibility are OK
Clouds: unknown
Weather: no significant weather observed at this time

METAR text: YPPH 171830Z 19009KT CAVOK 18/17 Q1015 FM2000 15008KT CAVOK
Conditions at: YPPH (PERTH INTL/BELMO, AU) observed 1830 UTC 17 November 2019
Temperature: 18.0°C (64°F)
Dewpoint: 17.0°C (63°F) [RH = 94%]
Pressure (altimeter): 29.97 inches Hg (1015.0 mb)
Winds: from the S (190 degrees) at 10 MPH (9 knots; 4.6 m/s)
Visibility: 6 or more miles (10+ km)
Ceiling: ceiling and visibility are OK
Clouds: unknown
Weather: no significant weather observed at this time

METAR text: YPPH 171800Z 20007KT CAVOK 18/17 Q1015 FM1930 15008KT CAVOK
Conditions at: YPPH (PERTH INTL/BELMO, AU) observed 1800 UTC 17 November 2019
Temperature: 18.0°C (64°F)
Dewpoint: 17.0°C (63°F) [RH = 94%]
Pressure (altimeter): 29.97 inches Hg (1015.0 mb)
Winds: from the SSW (200 degrees) at 8 MPH (7 knots; 3.6 m/s)
Visibility: 6 or more miles (10+ km)
Ceiling: ceiling and visibility are OK
Clouds: unknown
Weather: no significant weather observed at this time

METAR text: YPPH 171730Z 21006KT CAVOK 17/16 Q1015 FM1900 15008KT CAVOK
Conditions at: YPPH (PERTH INTL/BELMO, AU) observed 1730 UTC 17 November 2019
Temperature: 17.0°C (63°F)
Dewpoint: 16.0°C (61°F) [RH = 94%]
Pressure (altimeter): 29.97 inches Hg (1015.0 mb)
Winds: from the SSW (210 degrees) at 7 MPH (6 knots; 3.1 m/s)
Visibility: 6 or more miles (10+ km)
Ceiling: ceiling and visibility are OK
Clouds: unknown
Weather: no significant weather observed at this time

METAR text: YPPH 171700Z 20006KT CAVOK 17/16 Q1015 NOSIG
Conditions at: YPPH (PERTH INTL/BELMO, AU) observed 1700 UTC 17 November 2019
Temperature: 17.0°C (63°F)
Dewpoint: 16.0°C (61°F) [RH = 94%]
Pressure (altimeter): 29.97 inches Hg (1015.0 mb)
Winds: from the SSW (200 degrees) at 7 MPH (6 knots; 3.1 m/s)
Visibility: 6 or more miles (10+ km)
Ceiling: ceiling and visibility are OK
Clouds: unknown
Weather: no significant weather observed at this time

METAR text: YPPH 171630Z 18005KT CAVOK 18/17 Q1016 FM1730 20007KT 9999 FEW008
Conditions at: YPPH (PERTH INTL/BELMO, AU) observed 1630 UTC 17 November 2019
Temperature: 18.0°C (64°F)
Dewpoint: 17.0°C (63°F) [RH = 94%]
Pressure (altimeter): 30.00 inches Hg (1016.0 mb)
Winds: from the S (180 degrees) at 6 MPH (5 knots; 2.6 m/s)
Visibility: 6 or more miles (10+ km)
Ceiling: ceiling and visibility are OK
Clouds: unknown
Weather: no significant weather observed at this time

METAR text: YPPH 171600Z 21006KT CAVOK 19/17 Q1016 FM1700 20007KT 9999 FEW008
Conditions at: YPPH (PERTH INTL/BELMO, AU) observed 1600 UTC 17 November 2019
Temperature: 19.0°C (66°F)
Dewpoint: 17.0°C (63°F) [RH = 88%]
Pressure (altimeter): 30.00 inches Hg (1016.0 mb)
Winds: from the SSW (210 degrees) at 7 MPH (6 knots; 3.1 m/s)
Visibility: 6 or more miles (10+ km)
Ceiling: ceiling and visibility are OK
Clouds: unknown
Weather: no significant weather observed at this time

METAR text: YPPH 171530Z 21006KT CAVOK 19/17 Q1016
Conditions at: YPPH (PERTH INTL/BELMO, AU) observed 1530 UTC 17 November 2019
Temperature: 19.0°C (66°F)
Dewpoint: 17.0°C (63°F) [RH = 88%]
Pressure (altimeter): 30.00 inches Hg (1016.0 mb)
Winds: from the SSW (210 degrees) at 7 MPH (6 knots; 3.1 m/s)
Visibility: 6 or more miles (10+ km)
Ceiling: ceiling and visibility are OK
Clouds: unknown
Weather: no significant weather observed at this time

METAR text: YPPH 171500Z 22006KT 9999 FEW018 19/17 Q1016 FM1630 20007KT 9999 SCT008
Conditions at: YPPH (PERTH INTL/BELMO, AU) observed 1500 UTC 17 November 2019
Temperature: 19.0°C (66°F)
Dewpoint: 17.0°C (63°F) [RH = 88%]
Pressure (altimeter): 30.00 inches Hg (1016.0 mb)
Winds: from the SW (220 degrees) at 7 MPH (6 knots; 3.1 m/s)
Visibility: 6 or more miles (10+ km)
Ceiling: at least 12,000 feet AGL
Clouds: few clouds at 1800 feet AGL
Weather: no significant weather observed at this time

METAR text: YPPH 171430Z 21007KT CAVOK 20/17 Q1016 FM1600 20007KT 9999 SCT008
Conditions at: YPPH (PERTH INTL/BELMO, AU) observed 1430 UTC 17 November 2019
Temperature: 20.0°C (68°F)
Dewpoint: 17.0°C (63°F) [RH = 83%]
Pressure (altimeter): 30.00 inches Hg (1016.0 mb)
Winds: from the SSW (210 degrees) at 8 MPH (7 knots; 3.6 m/s)
Visibility: 6 or more miles (10+ km)
Ceiling: ceiling and visibility are OK
Clouds: unknown
Weather: no significant weather observed at this time

METAR text: YPPH 171400Z 21008KT CAVOK 20/17 Q1017 FM1500 20007KT 9999 SCT008
Conditions at: YPPH (PERTH INTL/BELMO, AU) observed 1400 UTC 17 November 2019
Temperature: 20.0°C (68°F)
Dewpoint: 17.0°C (63°F) [RH = 83%]
Pressure (altimeter): 30.03 inches Hg (1017.0 mb)
Winds: from the SSW (210 degrees) at 9 MPH (8 knots; 4.1 m/s)
Visibility: 6 or more miles (10+ km)
Ceiling: ceiling and visibility are OK
Clouds: unknown
Weather: no significant weather observed at this time

METAR text: YPPH 171330Z 21008KT 9999 FEW013 20/17 Q1017 FM1500 20007KT 9999 SCT008
Conditions at: YPPH (PERTH INTL/BELMO, AU) observed 1330 UTC 17 November 2019
Temperature: 20.0°C (68°F)
Dewpoint: 17.0°C (63°F) [RH = 83%]
Pressure (altimeter): 30.03 inches Hg (1017.0 mb)
Winds: from the SSW (210 degrees) at 9 MPH (8 knots; 4.1 m/s)
Visibility: 6 or more miles (10+ km)
Ceiling: at least 12,000 feet AGL
Clouds: few clouds at 1300 feet AGL
Weather: no significant weather observed at this time

METAR text: YPPH 171300Z 22011KT 9999 FEW030 20/17 Q1017 FM1300 21010KT 9999 FEW012 FM1500 20007KT 9999 SCT008
Conditions at: YPPH (PERTH INTL/BELMO, AU) observed 1300 UTC 17 November 2019
Temperature: 20.0°C (68°F)
Dewpoint: 17.0°C (63°F) [RH = 83%]
Pressure (altimeter): 30.03 inches Hg (1017.0 mb)
Winds: from the SW (220 degrees) at 13 MPH (11 knots; 5.7 m/s)
Visibility: 6 or more miles (10+ km)
Ceiling: at least 12,000 feet AGL
Clouds: few clouds at 3000 feet AGL
Weather: no significant weather observed at this time

METAR text: YPPH 171230Z 22010KT CAVOK 21/17 Q1017 FM1400 20007KT 9999 FEW005
Conditions at: YPPH (PERTH INTL/BELMO, AU) observed 1230 UTC 17 November 2019
Temperature: 21.0°C (70°F)
Dewpoint: 17.0°C (63°F) [RH = 78%]
Pressure (altimeter): 30.03 inches Hg (1017.0 mb)
Winds: from the SW (220 degrees) at 12 MPH (10 knots; 5.1 m/s)
Visibility: 6 or more miles (10+ km)
Ceiling: ceiling and visibility are OK
Clouds: unknown
Weather: no significant weather observed at this time

METAR text: YPPH 171200Z 24007KT CAVOK 21/17 Q1016 FM1400 20007KT 9999 FEW005
Conditions at: YPPH (PERTH INTL/BELMO, AU) observed 1200 UTC 17 November 2019
Temperature: 21.0°C (70°F)
Dewpoint: 17.0°C (63°F) [RH = 78%]
Pressure (altimeter): 30.00 inches Hg (1016.0 mb)
Winds: from the WSW (240 degrees) at 8 MPH (7 knots; 3.6 m/s)
Visibility: 6 or more miles (10+ km)
Ceiling: ceiling and visibility are OK
Clouds: unknown
Weather: no significant weather observed at this time

METAR text: YPPH 171130Z 23010KT CAVOK 21/17 Q1016 FM1400 20007KT 9999 SCT005
Conditions at: YPPH (PERTH INTL/BELMO, AU) observed 1130 UTC 17 November 2019
Temperature: 21.0°C (70°F)
Dewpoint: 17.0°C (63°F) [RH = 78%]
Pressure (altimeter): 30.00 inches Hg (1016.0 mb)
Winds: from the SW (230 degrees) at 12 MPH (10 knots; 5.1 m/s)
Visibility: 6 or more miles (10+ km)
Ceiling: ceiling and visibility are OK
Clouds: unknown
Weather: no significant weather observed at this time

METAR text: YPPH 171100Z 24009KT CAVOK 22/17 Q1016
Conditions at: YPPH (PERTH INTL/BELMO, AU) observed 1100 UTC 17 November 2019
Temperature: 22.0°C (72°F)
Dewpoint: 17.0°C (63°F) [RH = 73%]
Pressure (altimeter): 30.00 inches Hg (1016.0 mb)
Winds: from the WSW (240 degrees) at 10 MPH (9 knots; 4.6 m/s)
Visibility: 6 or more miles (10+ km)
Ceiling: ceiling and visibility are OK
Clouds: unknown
Weather: no significant weather observed at this time

METAR text: YPPH 171030Z 24011KT 9999 FEW040 23/17 Q1016 NOSIG
Conditions at: YPPH (PERTH INTL/BELMO, AU) observed 1030 UTC 17 November 2019
Temperature: 23.0°C (73°F)
Dewpoint: 17.0°C (63°F) [RH = 69%]
Pressure (altimeter): 30.00 inches Hg (1016.0 mb)
Winds: from the WSW (240 degrees) at 13 MPH (11 knots; 5.7 m/s)
Visibility: 6 or more miles (10+ km)
Ceiling: at least 12,000 feet AGL
Clouds: few clouds at 4000 feet AGL
Weather: no significant weather observed at this time

METAR text: YPPH 171000Z 25010KT 9999 FEW030 25/16 Q1016 NOSIG
Conditions at: YPPH (PERTH INTL/BELMO, AU) observed 1000 UTC 17 November 2019
Temperature: 25.0°C (77°F)
Dewpoint: 16.0°C (61°F) [RH = 57%]
Pressure (altimeter): 30.00 inches Hg (1016.0 mb)
Winds: from the WSW (250 degrees) at 12 MPH (10 knots; 5.1 m/s)
Visibility: 6 or more miles (10+ km)
Ceiling: at least 12,000 feet AGL
Clouds: few clouds at 3000 feet AGL
Weather: no significant weather observed at this time

METAR text: YPPH 170930Z 26009KT 9999 FEW030 25/16 Q1015 NOSIG
Conditions at: YPPH (PERTH INTL/BELMO, AU) observed 0930 UTC 17 November 2019
Temperature: 25.0°C (77°F)
Dewpoint: 16.0°C (61°F) [RH = 57%]
Pressure (altimeter): 29.97 inches Hg (1015.0 mb)
Winds: from the W (260 degrees) at 10 MPH (9 knots; 4.6 m/s)
Visibility: 6 or more miles (10+ km)
Ceiling: at least 12,000 feet AGL
Clouds: few clouds at 3000 feet AGL
Weather: no significant weather observed at this time

METAR text: YPPH 170900Z 26011KT 9999 FEW030 25/17 Q1015
Conditions at: YPPH (PERTH INTL/BELMO, AU) observed 0900 UTC 17 November 2019
Temperature: 25.0°C (77°F)
Dewpoint: 17.0°C (63°F) [RH = 61%]
Pressure (altimeter): 29.97 inches Hg (1015.0 mb)
Winds: from the W (260 degrees) at 13 MPH (11 knots; 5.7 m/s)
Visibility: 6 or more miles (10+ km)
Ceiling: at least 12,000 feet AGL
Clouds: few clouds at 3000 feet AGL
Weather: no significant weather observed at this time

METAR text: YPPH 170830Z 26012KT 9999 FEW035 26/17 Q1015 NOSIG
Conditions at: YPPH (PERTH INTL/BELMO, AU) observed 0830 UTC 17 November 2019
Temperature: 26.0°C (79°F)
Dewpoint: 17.0°C (63°F) [RH = 58%]
Pressure (altimeter): 29.97 inches Hg (1015.0 mb)
Winds: from the W (260 degrees) at 14 MPH (12 knots; 6.2 m/s)
Visibility: 6 or more miles (10+ km)
Ceiling: at least 12,000 feet AGL
Clouds: few clouds at 3500 feet AGL
Weather: no significant weather observed at this time

METAR text: YPPH 170800Z 26012KT 9999 FEW035 26/17 Q1015 NOSIG
Conditions at: YPPH (PERTH INTL/BELMO, AU) observed 0800 UTC 17 November 2019
Temperature: 26.0°C (79°F)
Dewpoint: 17.0°C (63°F) [RH = 58%]
Pressure (altimeter): 29.97 inches Hg (1015.0 mb)
Winds: from the W (260 degrees) at 14 MPH (12 knots; 6.2 m/s)
Visibility: 6 or more miles (10+ km)
Ceiling: at least 12,000 feet AGL
Clouds: few clouds at 3500 feet AGL
Weather: no significant weather observed at this time

METAR text: YPPH 170730Z 26012KT 9999 FEW035 28/17 Q1015 NOSIG
Conditions at: YPPH (PERTH INTL/BELMO, AU) observed 0730 UTC 17 November 2019
Temperature: 28.0°C (82°F)
Dewpoint: 17.0°C (63°F) [RH = 51%]
Pressure (altimeter): 29.97 inches Hg (1015.0 mb)
Winds: from the W (260 degrees) at 14 MPH (12 knots; 6.2 m/s)
Visibility: 6 or more miles (10+ km)
Ceiling: at least 12,000 feet AGL
Clouds: few clouds at 3500 feet AGL
Weather: no significant weather observed at this time

METAR text: YPPH 170700Z 27009KT CAVOK 28/16 Q1015
Conditions at: YPPH (PERTH INTL/BELMO, AU) observed 0700 UTC 17 November 2019
Temperature: 28.0°C (82°F)
Dewpoint: 16.0°C (61°F) [RH = 48%]
Pressure (altimeter): 29.97 inches Hg (1015.0 mb)
Winds: from the W (270 degrees) at 10 MPH (9 knots; 4.6 m/s)
Visibility: 6 or more miles (10+ km)
Ceiling: ceiling and visibility are OK
Clouds: unknown
Weather: no significant weather observed at this time

METAR text: YPPH 170630Z 26008KT CAVOK 29/17 Q1015 NOSIG
Conditions at: YPPH (PERTH INTL/BELMO, AU) observed 0630 UTC 17 November 2019
Temperature: 29.0°C (84°F)
Dewpoint: 17.0°C (63°F) [RH = 48%]
Pressure (altimeter): 29.97 inches Hg (1015.0 mb)
Winds: from the W (260 degrees) at 9 MPH (8 knots; 4.1 m/s)
Visibility: 6 or more miles (10+ km)
Ceiling: ceiling and visibility are OK
Clouds: unknown
Weather: no significant weather observed at this time

METAR text: YPPH 170600Z 27010KT CAVOK 28/17 Q1015 NOSIG
Conditions at: YPPH (PERTH INTL/BELMO, AU) observed 0600 UTC 17 November 2019
Temperature: 28.0°C (82°F)
Dewpoint: 17.0°C (63°F) [RH = 51%]
Pressure (altimeter): 29.97 inches Hg (1015.0 mb)
Winds: from the W (270 degrees) at 12 MPH (10 knots; 5.1 m/s)
Visibility: 6 or more miles (10+ km)
Ceiling: ceiling and visibility are OK
Clouds: unknown
Weather: no significant weather observed at this time

METAR text: YPPH 170500Z 27011KT CAVOK 28/17 Q1016 NOSIG
Conditions at: YPPH (PERTH INTL/BELMO, AU) observed 0500 UTC 17 November 2019
Temperature: 28.0°C (82°F)
Dewpoint: 17.0°C (63°F) [RH = 51%]
Pressure (altimeter): 30.00 inches Hg (1016.0 mb)
Winds: from the W (270 degrees) at 13 MPH (11 knots; 5.7 m/s)
Visibility: 6 or more miles (10+ km)
Ceiling: ceiling and visibility are OK
Clouds: unknown
Weather: no significant weather observed at this time

METAR text: YPPH 170400Z 27013KT CAVOK 28/18 Q1015 NOSIG
Conditions at: YPPH (PERTH INTL/BELMO, AU) observed 0400 UTC 17 November 2019
Temperature: 28.0°C (82°F)
Dewpoint: 18.0°C (64°F) [RH = 55%]
Pressure (altimeter): 29.97 inches Hg (1015.0 mb)
Winds: from the W (270 degrees) at 15 MPH (13 knots; 6.7 m/s)
Visibility: 6 or more miles (10+ km)
Ceiling: ceiling and visibility are OK
Clouds: unknown
Weather: no significant weather observed at this time

METAR text: YPPH 170330Z 27013KT CAVOK 28/19 Q1015 NOSIG
Conditions at: YPPH (PERTH INTL/BELMO, AU) observed 0330 UTC 17 November 2019
Temperature: 28.0°C (82°F)
Dewpoint: 19.0°C (66°F) [RH = 58%]
Pressure (altimeter): 29.97 inches Hg (1015.0 mb)
Winds: from the W (270 degrees) at 15 MPH (13 knots; 6.7 m/s)
Visibility: 6 or more miles (10+ km)
Ceiling: ceiling and visibility are OK
Clouds: unknown
Weather: no significant weather observed at this time

METAR text: YPPH 170300Z 27008KT CAVOK 29/18 Q1016 NOSIG
Conditions at: YPPH (PERTH INTL/BELMO, AU) observed 0300 UTC 17 November 2019
Temperature: 29.0°C (84°F)
Dewpoint: 18.0°C (64°F) [RH = 52%]
Pressure (altimeter): 30.00 inches Hg (1016.0 mb)
Winds: from the W (270 degrees) at 9 MPH (8 knots; 4.1 m/s)
Visibility: 6 or more miles (10+ km)
Ceiling: ceiling and visibility are OK
Clouds: unknown
Weather: no significant weather observed at this time

METAR text: YPPH 170230Z 25007KT 220V290 CAVOK 28/18 Q1016 NOSIG
Conditions at: YPPH (PERTH INTL/BELMO, AU) observed 0230 UTC 17 November 2019
Temperature: 28.0°C (82°F)
Dewpoint: 18.0°C (64°F) [RH = 55%]
Pressure (altimeter): 30.00 inches Hg (1016.0 mb)
Winds: from the WSW (250 degrees) at 8 MPH (7 knots; 3.6 m/s)
Visibility: 6 or more miles (10+ km)
Ceiling: ceiling and visibility are OK
Clouds: unknown
Weather: no significant weather observed at this time

METAR text: YPPH 170200Z 23005KT 200V270 CAVOK 27/18 Q1016 NOSIG
Conditions at: YPPH (PERTH INTL/BELMO, AU) observed 0200 UTC 17 November 2019
Temperature: 27.0°C (81°F)
Dewpoint: 18.0°C (64°F) [RH = 58%]
Pressure (altimeter): 30.00 inches Hg (1016.0 mb)
Winds: from the SW (230 degrees) at 6 MPH (5 knots; 2.6 m/s)
Visibility: 6 or more miles (10+ km)
Ceiling: ceiling and visibility are OK
Clouds: unknown
Weather: no significant weather observed at this time

METAR text: YPPH 170130Z 28006KT 9999 FEW025 25/18 Q1016 NOSIG
Conditions at: YPPH (PERTH INTL/BELMO, AU) observed 0130 UTC 17 November 2019
Temperature: 25.0°C (77°F)
Dewpoint: 18.0°C (64°F) [RH = 65%]
Pressure (altimeter): 30.00 inches Hg (1016.0 mb)
Winds: from the W (280 degrees) at 7 MPH (6 knots; 3.1 m/s)
Visibility: 6 or more miles (10+ km)
Ceiling: at least 12,000 feet AGL
Clouds: few clouds at 2500 feet AGL
Weather: no significant weather observed at this time

METAR text: YPPH 170100Z 33004KT 290V030 9999 FEW018 24/18 Q1016 FM0130 24010KT CAVOK
Conditions at: YPPH (PERTH INTL/BELMO, AU) observed 0100 UTC 17 November 2019
Temperature: 24.0°C (75°F)
Dewpoint: 18.0°C (64°F) [RH = 69%]
Pressure (altimeter): 30.00 inches Hg (1016.0 mb)
Winds: from the NNW (330 degrees) at 5 MPH (4 knots; 2.1 m/s)
Visibility: 6 or more miles (10+ km)
Ceiling: at least 12,000 feet AGL
Clouds: few clouds at 1800 feet AGL
Weather: no significant weather observed at this time

METAR text: YPPH 170030Z 03003KT 9999 SCT011 22/18 Q1017 FM0130 24010KT CAVOK
Conditions at: YPPH (PERTH INTL/BELMO, AU) observed 0030 UTC 17 November 2019
Temperature: 22.0°C (72°F)
Dewpoint: 18.0°C (64°F) [RH = 78%]
Pressure (altimeter): 30.03 inches Hg (1017.0 mb)
Winds: from the NNE (30 degrees) at 3 MPH (3 knots; 1.5 m/s)
Visibility: 6 or more miles (10+ km)
Ceiling: at least 12,000 feet AGL
Clouds: scattered clouds at 1100 feet AGL
Weather: no significant weather observed at this time

METAR text: YPPH 170000Z 31003KT 9999 BKN010 21/18 Q1017 FM0030 26006KT 9999 FEW010 FM0100 24010KT CAVOK
Conditions at: YPPH (PERTH INTL/BELMO, AU) observed 0000 UTC 17 November 2019
Temperature: 21.0°C (70°F)
Dewpoint: 18.0°C (64°F) [RH = 83%]
Pressure (altimeter): 30.03 inches Hg (1017.0 mb)
Winds: from the NW (310 degrees) at 3 MPH (3 knots; 1.5 m/s)
Visibility: 6 or more miles (10+ km)
Ceiling: 1000 feet AGL
Clouds: broken clouds at 1000 feet AGL
Weather: no significant weather observed at this time

METAR text: YPPH 162330Z 35003KT 5000 VCFG BKN004 20/19 Q1017 FM2340 VRB05KT 9999 NSW BKN005 FM0000 26006KT 9999 FEW008 FM0100 24010KT CAVOK
Conditions at: YPPH (PERTH INTL/BELMO, AU) observed 2330 UTC 16 November 2019
Temperature: 20.0°C (68°F)
Dewpoint: 19.0°C (66°F) [RH = 94%]
Pressure (altimeter): 30.03 inches Hg (1017.0 mb)
Winds: from the N (350 degrees) at 3 MPH (3 knots; 1.5 m/s)
Visibility: 3 miles ( 5 km)
Ceiling: 400 feet AGL
Clouds: broken clouds at 400 feet AGL
Weather: VCFG  (fog in vicinity)

METAR text: YPPH 162325Z 03004KT 350V070 5000 VCFG BKN004 20/19 Q1017 FM2340 VRB05KT 9999 NSW BKN005 FM0000 26006KT 9999 FEW008 FM0100 24010KT CAVOK
Conditions at: YPPH (PERTH INTL/BELMO, AU) observed 2325 UTC 16 November 2019
Temperature: 20.0°C (68°F)
Dewpoint: 19.0°C (66°F) [RH = 94%]
Pressure (altimeter): 30.03 inches Hg (1017.0 mb)
Winds: from the NNE (30 degrees) at 5 MPH (4 knots; 2.1 m/s)
Visibility: 3 miles ( 5 km)
Ceiling: 400 feet AGL
Clouds: broken clouds at 400 feet AGL
Weather: VCFG  (fog in vicinity)

METAR text: YPPH 162300Z 01004KT 0900 R21/2000U FG OVC002 19/19 Q1017
Conditions at: YPPH (PERTH INTL/BELMO, AU) observed 2300 UTC 16 November 2019
Temperature: 19.0°C (66°F)
Dewpoint: 19.0°C (66°F) [RH = 100%]
Pressure (altimeter): 30.03 inches Hg (1017.0 mb)
Winds: from the N (10 degrees) at 5 MPH (4 knots; 2.1 m/s)
Visibility: 0.56 miles (0.90 km)
Ceiling: 200 feet AGL
Clouds: overcast cloud deck at 200 feet AGL
Weather: FG  (fog)

METAR text: YPPH 162257Z 01005KT 0900 R21/0800VP2000U FG OVC002 19/18 Q1017 FM2330 26006KT 9999 NSW BKN005 FM0000 26006KT 9999 FEW008 FM0100 24012KT CAVOK
Conditions at: YPPH (PERTH INTL/BELMO, AU) observed 2257 UTC 16 November 2019
Temperature: 19.0°C (66°F)
Dewpoint: 18.0°C (64°F) [RH = 94%]
Pressure (altimeter): 30.03 inches Hg (1017.0 mb)
Winds: from the N (10 degrees) at 6 MPH (5 knots; 2.6 m/s)
Visibility: 0.56 miles (0.90 km)
Ceiling: 200 feet AGL
Clouds: overcast cloud deck at 200 feet AGL
Weather: FG  (fog)

METAR text: YPPH 162248Z 02005KT 0500 R21/0800D FG OVC002 19/18 Q1017 FM2330 26006KT 9999 NSW BKN005 FM0000 26006KT 9999 FEW008 FM0100 24012KT CAVOK
Conditions at: YPPH (PERTH INTL/BELMO, AU) observed 2248 UTC 16 November 2019
Temperature: 19.0°C (66°F)
Dewpoint: 18.0°C (64°F) [RH = 94%]
Pressure (altimeter): 30.03 inches Hg (1017.0 mb)
Winds: from the NNE (20 degrees) at 6 MPH (5 knots; 2.6 m/s)
Visibility: 0.31 miles (0.50 km)
Ceiling: 200 feet AGL
Clouds: overcast cloud deck at 200 feet AGL
Weather: FG  (fog)

METAR text: YPPH 162230Z 05003KT 0250 R21/0650V1000N FG OVC002 19/18 Q1016 FM2330 26006KT 9999 NSW BKN005 FM0000 26006KT 9999 FEW008
Conditions at: YPPH (PERTH INTL/BELMO, AU) observed 2230 UTC 16 November 2019
Temperature: 19.0°C (66°F)
Dewpoint: 18.0°C (64°F) [RH = 94%]
Pressure (altimeter): 30.00 inches Hg (1016.0 mb)
Winds: from the NE (50 degrees) at 3 MPH (3 knots; 1.5 m/s)
Visibility: 0.16 miles (0.26 km)
Ceiling: 200 feet AGL
Clouds: overcast cloud deck at 200 feet AGL
Weather: FG  (fog)

METAR text: YPPH 162208Z 36005KT 0500 R21/0700D FG OVC002 18/18 Q1016 FM2300 26006KT 9999 NSW BKN005 FM0000 26006KT 9999 FEW008
Conditions at: YPPH (PERTH INTL/BELMO, AU) observed 2208 UTC 16 November 2019
Temperature: 18.0°C (64°F)
Dewpoint: 18.0°C (64°F) [RH = 100%]
Pressure (altimeter): 30.00 inches Hg (1016.0 mb)
Winds: from the N (360 degrees) at 6 MPH (5 knots; 2.6 m/s)
Visibility: 0.31 miles (0.50 km)
Ceiling: 200 feet AGL
Clouds: overcast cloud deck at 200 feet AGL
Weather: FG  (fog)

METAR text: YPPH 162200Z 35006KT 0500 R21/0900VP2000D FG OVC002 18/18 Q1017
Conditions at: YPPH (PERTH INTL/BELMO, AU) observed 2200 UTC 16 November 2019
Temperature: 18.0°C (64°F)
Dewpoint: 18.0°C (64°F) [RH = 100%]
Pressure (altimeter): 30.03 inches Hg (1017.0 mb)
Winds: from the N (350 degrees) at 7 MPH (6 knots; 3.1 m/s)
Visibility: 0.31 miles (0.50 km)
Ceiling: 200 feet AGL
Clouds: overcast cloud deck at 200 feet AGL
Weather: FG  (fog)

METAR text: YPPH 162137Z 02005KT 1000 0500E R21/0800VP2000U PRFG OVC002 18/17 Q1016 FM2210 VRB05KT 2000 BR BKN003 FM2300 26006KT 9999 NSW BKN005
Conditions at: YPPH (PERTH INTL/BELMO, AU) observed 2137 UTC 16 November 2019
Temperature: 18.0°C (64°F)
Dewpoint: 17.0°C (63°F) [RH = 94%]
Pressure (altimeter): 30.00 inches Hg (1016.0 mb)
Winds: from the NNE (20 degrees) at 6 MPH (5 knots; 2.6 m/s)
Visibility: 0.62 miles (1.00 km)
Ceiling: 200 feet AGL
Clouds: overcast cloud deck at 200 feet AGL
Weather: PRFG  (partial fog)

METAR text: YPPH 162130Z 05005KT 0400 R21/0800N FG OVC002 18/17 Q1016 FM2300 26006KT 9999 NSW BKN005
Conditions at: YPPH (PERTH INTL/BELMO, AU) observed 2130 UTC 16 November 2019
Temperature: 18.0°C (64°F)
Dewpoint: 17.0°C (63°F) [RH = 94%]
Pressure (altimeter): 30.00 inches Hg (1016.0 mb)
Winds: from the NE (50 degrees) at 6 MPH (5 knots; 2.6 m/s)
Visibility: 0.25 miles (0.40 km)
Ceiling: 200 feet AGL
Clouds: overcast cloud deck at 200 feet AGL
Weather: FG  (fog)

METAR text: YPPH 162110Z 04005KT 0500 R21/0900VP2000D FG OVC002 17/17 Q1016 FM2115 VRB05KT 0300 FG BKN002 FM2300 26006KT 9999 NSW BKN005
Conditions at: YPPH (PERTH INTL/BELMO, AU) observed 2110 UTC 16 November 2019
Temperature: 17.0°C (63°F)
Dewpoint: 17.0°C (63°F) [RH = 100%]
Pressure (altimeter): 30.00 inches Hg (1016.0 mb)
Winds: from the NE (40 degrees) at 6 MPH (5 knots; 2.6 m/s)
Visibility: 0.31 miles (0.50 km)
Ceiling: 200 feet AGL
Clouds: overcast cloud deck at 200 feet AGL
Weather: FG  (fog)

METAR text: YPPH 162100Z 03005KT 0800 R21/P2000N FG OVC002 17/16 Q1016 FM2105 VRB05KT 0300 FG BKN002 FM2300 26006KT 9999 BKN005
Conditions at: YPPH (PERTH INTL/BELMO, AU) observed 2100 UTC 16 November 2019
Temperature: 17.0°C (63°F)
Dewpoint: 16.0°C (61°F) [RH = 94%]
Pressure (altimeter): 30.00 inches Hg (1016.0 mb)
Winds: from the NNE (30 degrees) at 6 MPH (5 knots; 2.6 m/s)
Visibility: 0.50 miles (0.80 km)
Ceiling: 200 feet AGL
Clouds: overcast cloud deck at 200 feet AGL
Weather: FG  (fog)

METAR text: YPPH 162035Z 03007KT 9999 BKN005 17/15 Q1016 FM2050 03005KT 9999 BKN003 FM2300 26006KT 9999 FEW008
Conditions at: YPPH (PERTH INTL/BELMO, AU) observed 2035 UTC 16 November 2019
Temperature: 17.0°C (63°F)
Dewpoint: 15.0°C (59°F) [RH = 88%]
Pressure (altimeter): 30.00 inches Hg (1016.0 mb)
Winds: from the NNE (30 degrees) at 8 MPH (7 knots; 3.6 m/s)
Visibility: 6 or more miles (10+ km)
Ceiling: 500 feet AGL
Clouds: broken clouds at 500 feet AGL
Weather: no significant weather observed at this time

METAR text: YPPH 162000Z 02006KT CAVOK 17/14 Q1015 FM2040 03005KT 9999 FEW003 FM2050 03005KT 9999 BKN003
Conditions at: YPPH (PERTH INTL/BELMO, AU) observed 2000 UTC 16 November 2019
Temperature: 17.0°C (63°F)
Dewpoint: 14.0°C (57°F) [RH = 82%]
Pressure (altimeter): 29.97 inches Hg (1015.0 mb)
Winds: from the NNE (20 degrees) at 7 MPH (6 knots; 3.1 m/s)
Visibility: 6 or more miles (10+ km)
Ceiling: ceiling and visibility are OK
Clouds: unknown
Weather: no significant weather observed at this time

METAR text: YPPH 161930Z 03006KT CAVOK 17/14 Q1015 FM1945 03005KT 9999 FEW005 FM2015 03005KT 9999 BKN005
Conditions at: YPPH (PERTH INTL/BELMO, AU) observed 1930 UTC 16 November 2019
Temperature: 17.0°C (63°F)
Dewpoint: 14.0°C (57°F) [RH = 82%]
Pressure (altimeter): 29.97 inches Hg (1015.0 mb)
Winds: from the NNE (30 degrees) at 7 MPH (6 knots; 3.1 m/s)
Visibility: 6 or more miles (10+ km)
Ceiling: ceiling and visibility are OK
Clouds: unknown
Weather: no significant weather observed at this time

METAR text: YPPH 161900Z 03005KT CAVOK 17/14 Q1015 FM1930 03005KT 9999 FEW005 FM2000 03005KT 9999 BKN005
Conditions at: YPPH (PERTH INTL/BELMO, AU) observed 1900 UTC 16 November 2019
Temperature: 17.0°C (63°F)
Dewpoint: 14.0°C (57°F) [RH = 82%]
Pressure (altimeter): 29.97 inches Hg (1015.0 mb)
Winds: from the NNE (30 degrees) at 6 MPH (5 knots; 2.6 m/s)
Visibility: 6 or more miles (10+ km)
Ceiling: ceiling and visibility are OK
Clouds: unknown
Weather: no significant weather observed at this time

METAR text: YPPH 161830Z 06005KT CAVOK 16/13 Q1015 FM1930 VRB03KT 9999 BKN005
Conditions at: YPPH (PERTH INTL/BELMO, AU) observed 1830 UTC 16 November 2019
Temperature: 16.0°C (61°F)
Dewpoint: 13.0°C (55°F) [RH = 82%]
Pressure (altimeter): 29.97 inches Hg (1015.0 mb)
Winds: from the ENE (60 degrees) at 6 MPH (5 knots; 2.6 m/s)
Visibility: 6 or more miles (10+ km)
Ceiling: ceiling and visibility are OK
Clouds: unknown
Weather: no significant weather observed at this time

METAR text: YPPH 161800Z 06004KT CAVOK 16/13 Q1015 FM1930 VRB03KT 9999 BKN005
Conditions at: YPPH (PERTH INTL/BELMO, AU) observed 1800 UTC 16 November 2019
Temperature: 16.0°C (61°F)
Dewpoint: 13.0°C (55°F) [RH = 82%]
Pressure (altimeter): 29.97 inches Hg (1015.0 mb)
Winds: from the ENE (60 degrees) at 5 MPH (4 knots; 2.1 m/s)
Visibility: 6 or more miles (10+ km)
Ceiling: ceiling and visibility are OK
Clouds: unknown
Weather: no significant weather observed at this time

METAR text: YPPH 161730Z 04003KT CAVOK 16/13 Q1015 FM1900 VRB03KT 9999 BKN005
Conditions at: YPPH (PERTH INTL/BELMO, AU) observed 1730 UTC 16 November 2019
Temperature: 16.0°C (61°F)
Dewpoint: 13.0°C (55°F) [RH = 82%]
Pressure (altimeter): 29.97 inches Hg (1015.0 mb)
Winds: from the NE (40 degrees) at 3 MPH (3 knots; 1.5 m/s)
Visibility: 6 or more miles (10+ km)
Ceiling: ceiling and visibility are OK
Clouds: unknown
Weather: no significant weather observed at this time

METAR text: YPPH 161700Z 01005KT CAVOK 17/13 Q1015 FM1900 VRB03KT 9999 BKN005
Conditions at: YPPH (PERTH INTL/BELMO, AU) observed 1700 UTC 16 November 2019
Temperature: 17.0°C (63°F)
Dewpoint: 13.0°C (55°F) [RH = 77%]
Pressure (altimeter): 29.97 inches Hg (1015.0 mb)
Winds: from the N (10 degrees) at 6 MPH (5 knots; 2.6 m/s)
Visibility: 6 or more miles (10+ km)
Ceiling: ceiling and visibility are OK
Clouds: unknown
Weather: no significant weather observed at this time

METAR text: YPPH 161630Z 03005KT CAVOK 17/13 Q1014 FM1900 VRB03KT 9999 BKN005
Conditions at: YPPH (PERTH INTL/BELMO, AU) observed 1630 UTC 16 November 2019
Temperature: 17.0°C (63°F)
Dewpoint: 13.0°C (55°F) [RH = 77%]
Pressure (altimeter): 29.94 inches Hg (1014.0 mb)
Winds: from the NNE (30 degrees) at 6 MPH (5 knots; 2.6 m/s)
Visibility: 6 or more miles (10+ km)
Ceiling: ceiling and visibility are OK
Clouds: unknown
Weather: no significant weather observed at this time

METAR text: YPPH 161600Z 05005KT CAVOK 18/13 Q1014 NOSIG
Conditions at: YPPH (PERTH INTL/BELMO, AU) observed 1600 UTC 16 November 2019
Temperature: 18.0°C (64°F)
Dewpoint: 13.0°C (55°F) [RH = 73%]
Pressure (altimeter): 29.94 inches Hg (1014.0 mb)
Winds: from the NE (50 degrees) at 6 MPH (5 knots; 2.6 m/s)
Visibility: 6 or more miles (10+ km)
Ceiling: ceiling and visibility are OK
Clouds: unknown
Weather: no significant weather observed at this time

METAR text: YPPH 161530Z 09005KT CAVOK 18/14 Q1014 NOSIG
Conditions at: YPPH (PERTH INTL/BELMO, AU) observed 1530 UTC 16 November 2019
Temperature: 18.0°C (64°F)
Dewpoint: 14.0°C (57°F) [RH = 77%]
Pressure (altimeter): 29.94 inches Hg (1014.0 mb)
Winds: from the E (90 degrees) at 6 MPH (5 knots; 2.6 m/s)
Visibility: 6 or more miles (10+ km)
Ceiling: ceiling and visibility are OK
Clouds: unknown
Weather: no significant weather observed at this time

METAR text: YPPH 161500Z 26004KT CAVOK 19/13 Q1014 NOSIG
Conditions at: YPPH (PERTH INTL/BELMO, AU) observed 1500 UTC 16 November 2019
Temperature: 19.0°C (66°F)
Dewpoint: 13.0°C (55°F) [RH = 68%]
Pressure (altimeter): 29.94 inches Hg (1014.0 mb)
Winds: from the W (260 degrees) at 5 MPH (4 knots; 2.1 m/s)
Visibility: 6 or more miles (10+ km)
Ceiling: ceiling and visibility are OK
Clouds: unknown
Weather: no significant weather observed at this time

METAR text: YPPH 161430Z 25005KT CAVOK 19/14 Q1014 NOSIG
Conditions at: YPPH (PERTH INTL/BELMO, AU) observed 1430 UTC 16 November 2019
Temperature: 19.0°C (66°F)
Dewpoint: 14.0°C (57°F) [RH = 73%]
Pressure (altimeter): 29.94 inches Hg (1014.0 mb)
Winds: from the WSW (250 degrees) at 6 MPH (5 knots; 2.6 m/s)
Visibility: 6 or more miles (10+ km)
Ceiling: ceiling and visibility are OK
Clouds: unknown
Weather: no significant weather observed at this time

METAR text: YPPH 161400Z 27005KT CAVOK 21/13 Q1014
Conditions at: YPPH (PERTH INTL/BELMO, AU) observed 1400 UTC 16 November 2019
Temperature: 21.0°C (70°F)
Dewpoint: 13.0°C (55°F) [RH = 60%]
Pressure (altimeter): 29.94 inches Hg (1014.0 mb)
Winds: from the W (270 degrees) at 6 MPH (5 knots; 2.6 m/s)
Visibility: 6 or more miles (10+ km)
Ceiling: ceiling and visibility are OK
Clouds: unknown
Weather: no significant weather observed at this time

METAR text: YPPH 161330Z 25005KT CAVOK 23/13 Q1014 NOSIG
Conditions at: YPPH (PERTH INTL/BELMO, AU) observed 1330 UTC 16 November 2019
Temperature: 23.0°C (73°F)
Dewpoint: 13.0°C (55°F) [RH = 53%]
Pressure (altimeter): 29.94 inches Hg (1014.0 mb)
Winds: from the WSW (250 degrees) at 6 MPH (5 knots; 2.6 m/s)
Visibility: 6 or more miles (10+ km)
Ceiling: ceiling and visibility are OK
Clouds: unknown
Weather: no significant weather observed at this time

METAR text: YPPH 161300Z 25006KT CAVOK 24/13 Q1014
Conditions at: YPPH (PERTH INTL/BELMO, AU) observed 1300 UTC 16 November 2019
Temperature: 24.0°C (75°F)
Dewpoint: 13.0°C (55°F) [RH = 50%]
Pressure (altimeter): 29.94 inches Hg (1014.0 mb)
Winds: from the WSW (250 degrees) at 7 MPH (6 knots; 3.1 m/s)
Visibility: 6 or more miles (10+ km)
Ceiling: ceiling and visibility are OK
Clouds: unknown
Weather: no significant weather observed at this time

METAR text: YPPH 161200Z 28007KT CAVOK 26/13 Q1014 NOSIG
Conditions at: YPPH (PERTH INTL/BELMO, AU) observed 1200 UTC 16 November 2019
Temperature: 26.0°C (79°F)
Dewpoint: 13.0°C (55°F) [RH = 45%]
Pressure (altimeter): 29.94 inches Hg (1014.0 mb)
Winds: from the W (280 degrees) at 8 MPH (7 knots; 3.6 m/s)
Visibility: 6 or more miles (10+ km)
Ceiling: ceiling and visibility are OK
Clouds: unknown
Weather: no significant weather observed at this time

METAR text: YPPH 161130Z 26008KT CAVOK 28/12 Q1013 NOSIG
Conditions at: YPPH (PERTH INTL/BELMO, AU) observed 1130 UTC 16 November 2019
Temperature: 28.0°C (82°F)
Dewpoint: 12.0°C (54°F) [RH = 37%]
Pressure (altimeter): 29.91 inches Hg (1013.0 mb)
Winds: from the W (260 degrees) at 9 MPH (8 knots; 4.1 m/s)
Visibility: 6 or more miles (10+ km)
Ceiling: ceiling and visibility are OK
Clouds: unknown
Weather: no significant weather observed at this time

METAR text: YPPH 161100Z 26007KT CAVOK 28/13 Q1013
Conditions at: YPPH (PERTH INTL/BELMO, AU) observed 1100 UTC 16 November 2019
Temperature: 28.0°C (82°F)
Dewpoint: 13.0°C (55°F) [RH = 40%]
Pressure (altimeter): 29.91 inches Hg (1013.0 mb)
Winds: from the W (260 degrees) at 8 MPH (7 knots; 3.6 m/s)
Visibility: 6 or more miles (10+ km)
Ceiling: ceiling and visibility are OK
Clouds: unknown
Weather: no significant weather observed at this time

METAR text: YPPH 161030Z 24006KT CAVOK 30/11 Q1013 NOSIG
Conditions at: YPPH (PERTH INTL/BELMO, AU) observed 1030 UTC 16 November 2019
Temperature: 30.0°C (86°F)
Dewpoint: 11.0°C (52°F) [RH = 31%]
Pressure (altimeter): 29.91 inches Hg (1013.0 mb)
Winds: from the WSW (240 degrees) at 7 MPH (6 knots; 3.1 m/s)
Visibility: 6 or more miles (10+ km)
Ceiling: ceiling and visibility are OK
Clouds: unknown
Weather: no significant weather observed at this time

METAR text: YPPH 161000Z 27007KT CAVOK 30/12 Q1013
Conditions at: YPPH (PERTH INTL/BELMO, AU) observed 1000 UTC 16 November 2019
Temperature: 30.0°C (86°F)
Dewpoint: 12.0°C (54°F) [RH = 33%]
Pressure (altimeter): 29.91 inches Hg (1013.0 mb)
Winds: from the W (270 degrees) at 8 MPH (7 knots; 3.6 m/s)
Visibility: 6 or more miles (10+ km)
Ceiling: ceiling and visibility are OK
Clouds: unknown
Weather: no significant weather observed at this time

METAR text: YPPH 160930Z 27009KT CAVOK 31/12 Q1013 NOSIG
Conditions at: YPPH (PERTH INTL/BELMO, AU) observed 0930 UTC 16 November 2019
Temperature: 31.0°C (88°F)
Dewpoint: 12.0°C (54°F) [RH = 31%]
Pressure (altimeter): 29.91 inches Hg (1013.0 mb)
Winds: from the W (270 degrees) at 10 MPH (9 knots; 4.6 m/s)
Visibility: 6 or more miles (10+ km)
Ceiling: ceiling and visibility are OK
Clouds: unknown
Weather: no significant weather observed at this time

METAR text: YPPH 160900Z 26010KT CAVOK 31/12 Q1013 NOSIG
Conditions at: YPPH (PERTH INTL/BELMO, AU) observed 0900 UTC 16 November 2019
Temperature: 31.0°C (88°F)
Dewpoint: 12.0°C (54°F) [RH = 31%]
Pressure (altimeter): 29.91 inches Hg (1013.0 mb)
Winds: from the W (260 degrees) at 12 MPH (10 knots; 5.1 m/s)
Visibility: 6 or more miles (10+ km)
Ceiling: ceiling and visibility are OK
Clouds: unknown
Weather: no significant weather observed at this time

Forecast for: YPPH (PERTH INTL/BELMO, AU)
Text: TAF YPPH 171705Z 1718/1900 19007KT CAVOK
Forecast period: 1800 UTC 17 November 2019 to 0000 UTC 19 November 2019
Forecast type: FROM: standard forecast or significant change
Winds: from the S (190 degrees) at 8 MPH (7 knots; 3.6 m/s)
Visibility: 6 or more miles 10+ km)
Ceiling: unknown
Clouds: missing
Weather: NSW  (no significant weather)
Text: BECMG 1718/1720 14008KT CAVOK
Forecast period: 1800 UTC 17 November 2019 to 0400 UTC 18 November 2019
Forecast type: BECOMING: Conditions expected to become as follows by 2000 UTC 17 November 2019
Winds: from the SE (140 degrees) at 9 MPH (8 knots; 4.1 m/s)
Visibility: 6 or more miles 10+ km)
Ceiling: unknown
Clouds: missing
Weather: NSW  (no significant weather)
Text: FM180400 22014KT CAVOK
Forecast period: 0400 to 1400 UTC 18 November 2019
Forecast type: FROM: standard forecast or significant change
Winds: from the SW (220 degrees) at 16 MPH (14 knots; 7.2 m/s)
Visibility: 6 or more miles 10+ km)
Ceiling: unknown
Clouds: missing
Weather: NSW  (no significant weather)
Text: FM181400 19006KT CAVOK
Forecast period: 1400 UTC 18 November 2019 to 0000 UTC 19 November 2019
Forecast type: FROM: standard forecast or significant change
Winds: from the S (190 degrees) at 7 MPH (6 knots; 3.1 m/s)
Visibility: 6 or more miles 10+ km)
Ceiling: unknown
Clouds: missing
Weather: NSW  (no significant weather)